首页
METAR-TAF:

METAR-TAF

机场 :

阿克托比, 哈萨克斯坦

纬度: 50-17N, 经度: 057-09E, 海拔: 227米

当前天气观测

该预报发布于27分钟前的14:00 UTC
风速6节,风向东南
温度 -6°C
湿度 79%
气压 1025 hPa
能见度10公里或以上
1500米以下无云,无积雨云

METAR: UATT 231400Z 13003MPS CAVOK M06/M09 Q1025 R13/0///60 NOSIG RMK QFE749/0999

时间: 19:27 (14:27 UTC)

预报

该预报发布于3小时和27分钟前的11:00 UTC
预报有效从23日的 12点(UTC)到 24日的 12点(UTC)
风速10节,风向南转南东
能见度10公里或以上
散云层高于2000英尺
短暂存在
从 23日的 16点(UTC)到 24日的 04点(UTC)
能見度: 3100
多云层高于1100英尺
轻雾
从 24日的 0400点(UTC)
风速12节,风向南转南东,有时为23节阵风
能見度: 3100
阴天层高于1100英尺
小雪, 高吹雪

TAF: UATT 231100Z 2312/2412 16005MPS 9999 SCT020 TXM01/2412Z TNM06/2401Z TEMPO 2316/2404 3100 BR BKN011 FM240400 16006G12MPS 3100 -SN BLSN OVC011

超过4000个机场的气象观测和天气预报(METAR&TAF报告)。

可查询的气象台以黄色和红色小点在地图上表示。

将鼠标移到小点上方,可查看气象台名称。

然后点击查看天气观测和预报。

如需切换地图:点击带黑十字的绿色按钮放大地图;点击带横线的绿色按钮缩小地图;或者点击绿色箭头查看邻近地区的地图。


METAR-TAF: